createdAt,value
2022-10-17T00:00:18.368Z,2.00
2022-10-17T00:01:21.904Z,2.00
2022-10-17T00:02:25.213Z,1.50
2022-10-17T00:03:28.709Z,1.50
2022-10-17T00:05:36.468Z,1.00
2022-10-17T00:06:40.231Z,1.00
2022-10-17T00:07:45.066Z,1.00
2022-10-17T00:08:48.641Z,1.00
2022-10-17T00:09:52.380Z,0.50
2022-10-17T00:10:56.846Z,1.00
2022-10-17T00:12:01.051Z,1.00
2022-10-17T00:13:04.614Z,1.00
2022-10-17T00:14:08.337Z,1.50
2022-10-17T00:15:19.804Z,1.25
2022-10-17T00:16:22.999Z,1.00
2022-10-17T00:17:26.617Z,1.00
2022-10-17T00:18:35.060Z,1.00
2022-10-17T00:19:46.273Z,1.50
2022-10-17T00:20:49.565Z,1.00
2022-10-17T00:21:53.187Z,0.50
2022-10-17T00:22:56.738Z,0.00
2022-10-17T00:24:00.827Z,0.25
2022-10-17T00:25:10.140Z,0.00
2022-10-17T00:26:16.309Z,0.50
2022-10-17T00:27:19.851Z,1.00
2022-10-17T00:28:23.680Z,0.25
2022-10-17T00:29:41.132Z,0.50
2022-10-17T01:04:12.914Z,1.00
2022-10-17T01:05:17.321Z,1.00
2022-10-17T01:07:46.444Z,1.00
2022-10-17T01:08:51.844Z,0.50
2022-10-17T01:10:05.792Z,0.00
2022-10-17T01:11:09.621Z,0.00
2022-10-17T01:12:13.160Z,0.00
2022-10-17T01:13:17.823Z,0.50
2022-10-17T01:30:24.695Z,0.50
2022-10-17T03:18:12.697Z,0.50
2022-10-17T03:24:38.520Z,0.50
2022-10-17T03:25:43.782Z,0.00
2022-10-17T03:27:53.991Z,0.00
2022-10-17T03:29:08.941Z,0.50
2022-10-17T03:30:17.066Z,0.25
2022-10-17T03:31:21.677Z,0.00
2022-10-17T03:32:28.757Z,0.00
2022-10-17T03:33:34.275Z,0.00
2022-10-17T03:35:58.672Z,0.00
2022-10-17T03:38:32.870Z,0.50
2022-10-17T03:41:04.945Z,0.00
2022-10-17T03:42:24.229Z,0.00
2022-10-17T03:43:29.252Z,0.00
2022-10-17T03:44:32.808Z,0.50
2022-10-17T03:45:40.400Z,1.00
2022-10-17T03:48:05.718Z,0.50
2022-10-17T03:51:52.734Z,0.00
2022-10-17T03:52:58.051Z,1.00
2022-10-17T03:54:13.388Z,0.50
2022-10-17T03:55:17.440Z,0.00
2022-10-17T03:56:25.184Z,0.50
2022-10-17T03:57:35.915Z,0.50
2022-10-17T03:58:40.198Z,0.00
2022-10-17T03:59:45.332Z,0.50
2022-10-17T04:00:54.523Z,0.00
2022-10-17T04:01:59.164Z,0.50
2022-10-17T04:03:04.087Z,0.25
2022-10-17T04:04:09.889Z,0.00
2022-10-17T04:05:18.438Z,0.00
2022-10-17T04:07:43.142Z,0.75
2022-10-17T04:08:47.534Z,0.00
2022-10-17T04:09:58.686Z,0.50
2022-10-17T04:11:04.642Z,1.00
2022-10-17T04:12:08.760Z,0.50
2022-10-17T04:13:21.492Z,0.50
2022-10-17T04:14:26.194Z,0.50
2022-10-17T04:15:29.773Z,1.00
2022-10-17T04:16:36.943Z,0.25
2022-10-17T04:19:04.709Z,0.00
2022-10-17T04:20:09.121Z,0.00
2022-10-17T04:21:27.643Z,0.00
2022-10-17T04:22:37.098Z,0.00
2022-10-17T04:26:25.449Z,0.00
2022-10-17T04:29:05.889Z,0.00
2022-10-17T04:33:09.113Z,0.00
2022-10-17T04:35:50.831Z,1.00
2022-10-17T04:36:54.392Z,0.50
2022-10-17T04:38:01.420Z,0.50
2022-10-17T04:44:32.535Z,0.75
2022-10-17T04:47:03.320Z,0.00
2022-10-17T04:48:13.831Z,0.25
2022-10-17T04:49:23.329Z,0.50
